sensor_id;sensor_type;location;lat;lon;timestamp;pressure;altitude;pressure_sealevel;temperature;humidity
44839;BME280;30576;42.098;24.876;2023-02-13T00:00:29;101702.56;;;4.83;55.31
44839;BME280;30576;42.098;24.876;2023-02-13T00:02:55;101705.63;;;4.94;54.80
44839;BME280;30576;42.098;24.876;2023-02-13T00:05:20;101708.47;;;4.77;55.37
44839;BME280;30576;42.098;24.876;2023-02-13T00:07:45;101712.53;;;4.71;55.45
44839;BME280;30576;42.098;24.876;2023-02-13T00:10:13;101718.69;;;4.94;55.22
44839;BME280;30576;42.098;24.876;2023-02-13T00:12:39;101708.34;;;4.97;54.90
44839;BME280;30576;42.098;24.876;2023-02-13T00:15:07;101715.69;;;5.06;54.76
44839;BME280;30576;42.098;24.876;2023-02-13T00:17:32;101712.50;;;5.13;54.60
44839;BME280;30576;42.098;24.876;2023-02-13T00:19:58;101724.19;;;5.23;54.44
44839;BME280;30576;42.098;24.876;2023-02-13T00:22:29;101721.47;;;5.19;54.45
44839;BME280;30576;42.098;24.876;2023-02-13T00:24:55;101724.38;;;5.27;54.19
44839;BME280;30576;42.098;24.876;2023-02-13T00:27:20;101718.28;;;5.27;54.18
44839;BME280;30576;42.098;24.876;2023-02-13T00:29:45;101718.66;;;5.37;54.17
44839;BME280;30576;42.098;24.876;2023-02-13T00:32:10;101716.38;;;5.47;53.78
44839;BME280;30576;42.098;24.876;2023-02-13T00:34:36;101720.09;;;5.29;54.20
44839;BME280;30576;42.098;24.876;2023-02-13T00:37:01;101720.97;;;5.30;54.38
44839;BME280;30576;42.098;24.876;2023-02-13T00:39:27;101723.59;;;5.30;54.25
44839;BME280;30576;42.098;24.876;2023-02-13T00:41:52;101722.72;;;5.29;54.61
44839;BME280;30576;42.098;24.876;2023-02-13T00:44:17;101727.81;;;5.26;54.50
44839;BME280;30576;42.098;24.876;2023-02-13T00:46:43;101724.84;;;5.40;54.19
44839;BME280;30576;42.098;24.876;2023-02-13T00:49:08;101720.31;;;5.35;54.05
44839;BME280;30576;42.098;24.876;2023-02-13T00:51:33;101723.88;;;5.37;53.78
44839;BME280;30576;42.098;24.876;2023-02-13T00:54:08;101722.72;;;5.52;53.10
44839;BME280;30576;42.098;24.876;2023-02-13T00:56:33;101725.56;;;5.58;52.67
44839;BME280;30576;42.098;24.876;2023-02-13T00:58:58;101728.47;;;5.43;53.08
44839;BME280;30576;42.098;24.876;2023-02-13T01:01:26;101723.78;;;5.12;54.15
44839;BME280;30576;42.098;24.876;2023-02-13T01:03:51;101726.50;;;5.15;54.01
44839;BME280;30576;42.098;24.876;2023-02-13T01:06:17;101724.25;;;5.24;53.62
44839;BME280;30576;42.098;24.876;2023-02-13T01:08:42;101723.78;;;5.12;53.78
44839;BME280;30576;42.098;24.876;2023-02-13T01:11:07;101727.03;;;5.06;54.25
44839;BME280;30576;42.098;24.876;2023-02-13T01:13:33;101723.47;;;5.04;53.93
44839;BME280;30576;42.098;24.876;2023-02-13T01:15:58;101724.59;;;4.88;54.42
44839;BME280;30576;42.098;24.876;2023-02-13T01:18:23;101725.84;;;4.98;54.23
44839;BME280;30576;42.098;24.876;2023-02-13T01:20:59;101718.00;;;4.98;54.22
44839;BME280;30576;42.098;24.876;2023-02-13T01:23:25;101719.88;;;4.79;55.11
44839;BME280;30576;42.098;24.876;2023-02-13T01:25:50;101716.06;;;4.71;55.30
44839;BME280;30576;42.098;24.876;2023-02-13T01:28:16;101719.03;;;4.59;55.26
44839;BME280;30576;42.098;24.876;2023-02-13T01:30:41;101721.91;;;4.65;55.40
44839;BME280;30576;42.098;24.876;2023-02-13T01:33:08;101718.91;;;4.56;55.37
44839;BME280;30576;42.098;24.876;2023-02-13T01:35:40;101729.38;;;4.56;55.47
44839;BME280;30576;42.098;24.876;2023-02-13T01:38:05;101732.81;;;4.55;55.35
44839;BME280;30576;42.098;24.876;2023-02-13T01:40:32;101729.22;;;4.32;55.77
44839;BME280;30576;42.098;24.876;2023-02-13T01:42:58;101731.66;;;4.08;56.50
44839;BME280;30576;42.098;24.876;2023-02-13T01:45:27;101731.53;;;4.05;56.41
44839;BME280;30576;42.098;24.876;2023-02-13T01:47:53;101733.16;;;4.03;56.54
44839;BME280;30576;42.098;24.876;2023-02-13T01:50:25;101734.97;;;3.84;56.60
44839;BME280;30576;42.098;24.876;2023-02-13T01:53:06;101738.69;;;3.89;56.86
44839;BME280;30576;42.098;24.876;2023-02-13T01:55:33;101732.06;;;3.98;56.44
44839;BME280;30576;42.098;24.876;2023-02-13T01:58:33;101735.56;;;3.98;56.13
44839;BME280;30576;42.098;24.876;2023-02-13T02:00:54;101730.69;;;4.06;56.12
44839;BME280;30576;42.098;24.876;2023-02-13T02:03:26;101739.50;;;4.08;55.95
44839;BME280;30576;42.098;24.876;2023-02-13T02:05:55;101738.47;;;3.85;56.13
44839;BME280;30576;42.098;24.876;2023-02-13T02:08:21;101720.88;;;3.81;56.00
44839;BME280;30576;42.098;24.876;2023-02-13T02:10:47;101742.78;;;3.84;56.42
44839;BME280;30576;42.098;24.876;2023-02-13T02:13:14;101747.69;;;3.96;55.88
44839;BME280;30576;42.098;24.876;2023-02-13T02:15:42;101742.59;;;3.99;55.87
44839;BME280;30576;42.098;24.876;2023-02-13T02:18:12;101744.59;;;3.85;55.85
44839;BME280;30576;42.098;24.876;2023-02-13T02:26:04;101767.69;;;3.38;57.12
44839;BME280;30576;42.098;24.876;2023-02-13T02:36:12;101785.78;;;3.17;58.37
44839;BME280;30576;42.098;24.876;2023-02-13T02:46:44;101802.97;;;2.43;60.65
44839;BME280;30576;42.098;24.876;2023-02-13T02:49:35;101803.03;;;2.45;61.07
44839;BME280;30576;42.098;24.876;2023-02-13T02:52:23;101805.22;;;2.54;60.92
44839;BME280;30576;42.098;24.876;2023-02-13T02:54:58;101812.66;;;2.46;60.64
44839;BME280;30576;42.098;24.876;2023-02-13T02:57:35;101809.44;;;2.51;60.69
44839;BME280;30576;42.098;24.876;2023-02-13T03:00:22;101812.84;;;2.67;60.04
44839;BME280;30576;42.098;24.876;2023-02-13T03:03:17;101809.38;;;2.50;60.95
44839;BME280;30576;42.098;24.876;2023-02-13T03:06:05;101810.16;;;2.65;60.22
44839;BME280;30576;42.098;24.876;2023-02-13T03:08:36;101818.25;;;2.54;60.35
44839;BME280;30576;42.098;24.876;2023-02-13T03:11:21;101811.75;;;2.45;60.76
44839;BME280;30576;42.098;24.876;2023-02-13T03:14:15;101808.63;;;2.53;60.78
44839;BME280;30576;42.098;24.876;2023-02-13T03:16:44;101815.91;;;2.42;61.46
44839;BME280;30576;42.098;24.876;2023-02-13T03:22:36;101810.28;;;2.34;60.49
44839;BME280;30576;42.098;24.876;2023-02-13T03:27:40;101819.50;;;2.11;60.62
44839;BME280;30576;42.098;24.876;2023-02-13T03:34:15;101827.63;;;2.01;61.00
44839;BME280;30576;42.098;24.876;2023-02-13T03:36:19;101823.75;;;2.09;60.42
44839;BME280;30576;42.098;24.876;2023-02-13T03:39:08;101826.72;;;2.00;60.59
44839;BME280;30576;42.098;24.876;2023-02-13T03:41:42;101829.91;;;2.11;60.53
44839;BME280;30576;42.098;24.876;2023-02-13T03:46:50;101818.69;;;2.12;60.58
44839;BME280;30576;42.098;24.876;2023-02-13T03:49:41;101819.34;;;2.08;60.80
44839;BME280;30576;42.098;24.876;2023-02-13T03:52:24;101818.38;;;2.06;60.88
44839;BME280;30576;42.098;24.876;2023-02-13T03:55:12;101821.47;;;2.15;60.70
44839;BME280;30576;42.098;24.876;2023-02-13T03:57:56;101830.44;;;1.72;61.81
44839;BME280;30576;42.098;24.876;2023-02-13T04:00:49;101827.44;;;1.81;61.70
44839;BME280;30576;42.098;24.876;2023-02-13T04:03:23;101825.28;;;1.89;61.55
44839;BME280;30576;42.098;24.876;2023-02-13T04:05:51;101825.34;;;1.90;61.47
44839;BME280;30576;42.098;24.876;2023-02-13T04:08:18;101835.84;;;1.60;62.61
44839;BME280;30576;42.098;24.876;2023-02-13T04:10:50;101837.41;;;1.42;64.45
44839;BME280;30576;42.098;24.876;2023-02-13T04:13:32;101827.88;;;1.57;64.02
44839;BME280;30576;42.098;24.876;2023-02-13T04:16:09;101833.75;;;1.70;63.55
44839;BME280;30576;42.098;24.876;2023-02-13T04:18:35;101841.44;;;1.83;63.53
44839;BME280;30576;42.098;24.876;2023-02-13T04:21:02;101845.00;;;1.85;63.36
44839;BME280;30576;42.098;24.876;2023-02-13T04:23:30;101835.31;;;1.66;63.92
44839;BME280;30576;42.098;24.876;2023-02-13T04:25:55;101826.44;;;1.79;62.79
44839;BME280;30576;42.098;24.876;2023-02-13T04:28:24;101832.31;;;1.43;62.11
44839;BME280;30576;42.098;24.876;2023-02-13T04:30:49;101829.41;;;1.22;62.25
44839;BME280;30576;42.098;24.876;2023-02-13T04:33:14;101830.03;;;1.18;62.60
44839;BME280;30576;42.098;24.876;2023-02-13T04:35:42;101830.56;;;1.28;62.43
44839;BME280;30576;42.098;24.876;2023-02-13T04:38:10;101830.34;;;1.39;62.24
44839;BME280;30576;42.098;24.876;2023-02-13T04:40:38;101825.88;;;1.37;61.80
44839;BME280;30576;42.098;24.876;2023-02-13T04:43:03;101835.56;;;1.39;61.85
44839;BME280;30576;42.098;24.876;2023-02-13T04:45:28;101840.44;;;1.18;61.94
44839;BME280;30576;42.098;24.876;2023-02-13T04:47:54;101838.78;;;1.20;61.69
44839;BME280;30576;42.098;24.876;2023-02-13T04:50:20;101841.88;;;0.83;62.94
44839;BME280;30576;42.098;24.876;2023-02-13T04:52:54;101837.38;;;0.66;63.50
44839;BME280;30576;42.098;24.876;2023-02-13T04:55:24;101840.22;;;0.56;64.57
44839;BME280;30576;42.098;24.876;2023-02-13T04:57:55;101846.06;;;0.66;64.50
44839;BME280;30576;42.098;24.876;2023-02-13T05:00:22;101839.69;;;0.61;64.02
44839;BME280;30576;42.098;24.876;2023-02-13T05:02:47;101842.31;;;0.61;63.80
44839;BME280;30576;42.098;24.876;2023-02-13T05:05:12;101849.22;;;0.61;63.64
44839;BME280;30576;42.098;24.876;2023-02-13T05:07:40;101852.66;;;0.46;64.15
44839;BME280;30576;42.098;24.876;2023-02-13T05:10:06;101846.16;;;0.68;63.65
44839;BME280;30576;42.098;24.876;2023-02-13T05:12:32;101854.13;;;0.71;63.05
44839;BME280;30576;42.098;24.876;2023-02-13T05:15:00;101855.81;;;0.41;63.40
44839;BME280;30576;42.098;24.876;2023-02-13T05:17:26;101856.97;;;0.46;63.37
44839;BME280;30576;42.098;24.876;2023-02-13T05:19:51;101862.16;;;0.46;63.96
44839;BME280;30576;42.098;24.876;2023-02-13T05:22:17;101866.28;;;0.57;63.35
44839;BME280;30576;42.098;24.876;2023-02-13T05:25:01;101865.34;;;0.42;63.98
44839;BME280;30576;42.098;24.876;2023-02-13T05:27:26;101871.00;;;0.34;64.31
44839;BME280;30576;42.098;24.876;2023-02-13T05:29:51;101872.78;;;0.35;64.25
44839;BME280;30576;42.098;24.876;2023-02-13T05:32:17;101879.25;;;0.42;64.41
44839;BME280;30576;42.098;24.876;2023-02-13T05:34:42;101886.59;;;0.49;64.02
44839;BME280;30576;42.098;24.876;2023-02-13T05:37:07;101884.41;;;0.70;63.76
44839;BME280;30576;42.098;24.876;2023-02-13T05:39:35;101895.09;;;0.75;63.31
44839;BME280;30576;42.098;24.876;2023-02-13T05:42:00;101892.63;;;0.63;63.53
44839;BME280;30576;42.098;24.876;2023-02-13T05:44:29;101887.44;;;0.63;63.67
44839;BME280;30576;42.098;24.876;2023-02-13T05:46:54;101890.31;;;0.68;63.47
44839;BME280;30576;42.098;24.876;2023-02-13T05:49:19;101898.38;;;0.58;63.31
44839;BME280;30576;42.098;24.876;2023-02-13T05:51:45;101895.78;;;0.58;64.03
44839;BME280;30576;42.098;24.876;2023-02-13T05:54:11;101903.66;;;0.59;64.16
44839;BME280;30576;42.098;24.876;2023-02-13T05:56:37;101903.94;;;0.64;64.27
44839;BME280;30576;42.098;24.876;2023-02-13T05:59:02;101908.16;;;0.77;63.90
44839;BME280;30576;42.098;24.876;2023-02-13T06:01:28;101904.78;;;0.78;63.49
44839;BME280;30576;42.098;24.876;2023-02-13T06:03:53;101902.03;;;0.61;63.97
44839;BME280;30576;42.098;24.876;2023-02-13T06:06:18;101903.72;;;0.89;63.65
44839;BME280;30576;42.098;24.876;2023-02-13T06:08:44;101914.19;;;0.91;63.50
44839;BME280;30576;42.098;24.876;2023-02-13T06:11:09;101912.41;;;1.04;63.84
44839;BME280;30576;42.098;24.876;2023-02-13T06:13:35;101916.53;;;1.16;63.76
44839;BME280;30576;42.098;24.876;2023-02-13T06:16:00;101909.53;;;1.30;63.67
44839;BME280;30576;42.098;24.876;2023-02-13T06:18:25;101915.72;;;1.47;63.12
44839;BME280;30576;42.098;24.876;2023-02-13T06:20:51;101907.09;;;1.63;63.58
44839;BME280;30576;42.098;24.876;2023-02-13T06:23:16;101916.81;;;1.82;63.02
44839;BME280;30576;42.098;24.876;2023-02-13T06:25:41;101913.69;;;1.87;63.03
44839;BME280;30576;42.098;24.876;2023-02-13T06:28:07;101919.31;;;2.11;63.13
44839;BME280;30576;42.098;24.876;2023-02-13T06:30:32;101915.28;;;2.17;62.50
44839;BME280;30576;42.098;24.876;2023-02-13T06:32:58;101912.69;;;2.33;62.77
44839;BME280;30576;42.098;24.876;2023-02-13T06:35:23;101906.44;;;2.46;62.96
44839;BME280;30576;42.098;24.876;2023-02-13T06:37:49;101912.09;;;2.88;62.16
44839;BME280;30576;42.098;24.876;2023-02-13T06:40:14;101912.72;;;3.17;63.08
44839;BME280;30576;42.098;24.876;2023-02-13T06:42:43;101906.28;;;3.45;61.27
44839;BME280;30576;42.098;24.876;2023-02-13T06:45:11;101908.34;;;3.70;61.19
44839;BME280;30576;42.098;24.876;2023-02-13T06:47:43;101901.16;;;4.02;59.19
44839;BME280;30576;42.098;24.876;2023-02-13T06:50:09;101906.69;;;3.90;58.29
44839;BME280;30576;42.098;24.876;2023-02-13T06:52:35;101911.31;;;3.78;58.51
44839;BME280;30576;42.098;24.876;2023-02-13T06:55:00;101913.16;;;3.98;59.07
44839;BME280;30576;42.098;24.876;2023-02-13T06:57:25;101913.88;;;4.13;58.56
44839;BME280;30576;42.098;24.876;2023-02-13T06:59:51;101915.78;;;3.98;57.98
44839;BME280;30576;42.098;24.876;2023-02-13T07:02:16;101908.72;;;3.96;57.91
44839;BME280;30576;42.098;24.876;2023-02-13T07:04:42;101907.28;;;4.02;57.71
44839;BME280;30576;42.098;24.876;2023-02-13T07:07:07;101898.00;;;4.09;57.50
44839;BME280;30576;42.098;24.876;2023-02-13T07:09:32;101890.44;;;4.15;57.36
44839;BME280;30576;42.098;24.876;2023-02-13T07:11:58;101891.78;;;4.25;57.39
44839;BME280;30576;42.098;24.876;2023-02-13T07:14:26;101898.19;;;4.51;56.75
44839;BME280;30576;42.098;24.876;2023-02-13T07:16:51;101897.47;;;4.55;56.84
44839;BME280;30576;42.098;24.876;2023-02-13T07:19:16;101895.50;;;5.10;55.94
44839;BME280;30576;42.098;24.876;2023-02-13T07:21:42;101892.09;;;4.91;55.77
44839;BME280;30576;42.098;24.876;2023-02-13T07:24:07;101898.81;;;5.06;55.73
44839;BME280;30576;42.098;24.876;2023-02-13T07:26:32;101903.94;;;5.24;55.38
44839;BME280;30576;42.098;24.876;2023-02-13T07:28:58;101890.84;;;4.83;55.45
44839;BME280;30576;42.098;24.876;2023-02-13T07:31:23;101895.69;;;4.74;56.19
44839;BME280;30576;42.098;24.876;2023-02-13T07:33:48;101895.94;;;4.80;55.66
44839;BME280;30576;42.098;24.876;2023-02-13T07:36:14;101901.44;;;4.65;56.18
44839;BME280;30576;42.098;24.876;2023-02-13T07:38:39;101902.53;;;4.31;57.39
44839;BME280;30576;42.098;24.876;2023-02-13T07:41:04;101906.69;;;4.08;58.54
44839;BME280;30576;42.098;24.876;2023-02-13T07:43:30;101899.47;;;4.41;58.01
44839;BME280;30576;42.098;24.876;2023-02-13T07:45:59;101898.94;;;4.48;57.46
44839;BME280;30576;42.098;24.876;2023-02-13T07:48:24;101892.16;;;4.93;57.42
44839;BME280;30576;42.098;24.876;2023-02-13T07:50:53;101886.88;;;4.72;56.63
44839;BME280;30576;42.098;24.876;2023-02-13T07:53:18;101889.50;;;4.52;57.60
44839;BME280;30576;42.098;24.876;2023-02-13T07:55:44;101890.31;;;4.71;58.01
44839;BME280;30576;42.098;24.876;2023-02-13T07:58:09;101890.53;;;5.16;56.54
44839;BME280;30576;42.098;24.876;2023-02-13T08:00:34;101884.34;;;5.35;55.57
44839;BME280;30576;42.098;24.876;2023-02-13T08:03:00;101882.22;;;5.70;54.77
44839;BME280;30576;42.098;24.876;2023-02-13T08:05:26;101888.13;;;5.64;54.59
44839;BME280;30576;42.098;24.876;2023-02-13T08:07:51;101884.84;;;5.70;54.38
44839;BME280;30576;42.098;24.876;2023-02-13T08:10:16;101873.13;;;5.60;54.38
44839;BME280;30576;42.098;24.876;2023-02-13T08:13:00;101880.38;;;6.11;53.05
44839;BME280;30576;42.098;24.876;2023-02-13T08:15:26;101880.91;;;6.02;53.42
44839;BME280;30576;42.098;24.876;2023-02-13T08:17:51;101875.22;;;5.91;52.89
44839;BME280;30576;42.098;24.876;2023-02-13T08:20:16;101886.38;;;5.21;54.91
44839;BME280;30576;42.098;24.876;2023-02-13T08:22:42;101875.88;;;5.42;54.38
44839;BME280;30576;42.098;24.876;2023-02-13T08:25:07;101878.56;;;5.87;53.42
44839;BME280;30576;42.098;24.876;2023-02-13T08:27:32;101877.41;;;6.24;52.89
44839;BME280;30576;42.098;24.876;2023-02-13T08:29:58;101874.91;;;5.84;53.58
44839;BME280;30576;42.098;24.876;2023-02-13T08:32:23;101877.34;;;5.56;53.88
44839;BME280;30576;42.098;24.876;2023-02-13T08:34:49;101867.97;;;5.84;53.83
44839;BME280;30576;42.098;24.876;2023-02-13T08:37:15;101848.97;;;5.90;53.87
44839;BME280;30576;42.098;24.876;2023-02-13T08:39:40;101870.94;;;5.71;54.32
44839;BME280;30576;42.098;24.876;2023-02-13T08:42:05;101863.31;;;6.22;53.48
44839;BME280;30576;42.098;24.876;2023-02-13T08:44:31;101861.38;;;6.65;51.92
44839;BME280;30576;42.098;24.876;2023-02-13T08:46:56;101865.97;;;6.96;50.49
44839;BME280;30576;42.098;24.876;2023-02-13T08:49:21;101864.97;;;7.19;50.56
44839;BME280;30576;42.098;24.876;2023-02-13T08:51:47;101866.88;;;6.97;50.64
44839;BME280;30576;42.098;24.876;2023-02-13T08:54:13;101867.22;;;6.82;50.28
44839;BME280;30576;42.098;24.876;2023-02-13T08:56:38;101866.78;;;6.45;51.51
44839;BME280;30576;42.098;24.876;2023-02-13T08:59:04;101864.28;;;6.73;51.42
44839;BME280;30576;42.098;24.876;2023-02-13T09:01:29;101858.72;;;6.63;50.81
44839;BME280;30576;42.098;24.876;2023-02-13T09:03:54;101859.44;;;6.59;50.86
44839;BME280;30576;42.098;24.876;2023-02-13T09:06:20;101858.00;;;6.93;50.61
44839;BME280;30576;42.098;24.876;2023-02-13T09:08:45;101853.03;;;7.28;49.11
44839;BME280;30576;42.098;24.876;2023-02-13T09:11:11;101849.44;;;7.25;49.46
44839;BME280;30576;42.098;24.876;2023-02-13T09:13:36;101851.34;;;7.30;49.42
44839;BME280;30576;42.098;24.876;2023-02-13T09:16:02;101845.50;;;7.12;49.25
44839;BME280;30576;42.098;24.876;2023-02-13T09:18:28;101849.69;;;7.07;49.90
44839;BME280;30576;42.098;24.876;2023-02-13T09:21:01;101843.84;;;7.14;49.72
44839;BME280;30576;42.098;24.876;2023-02-13T09:23:30;101831.75;;;6.93;50.70
44839;BME280;30576;42.098;24.876;2023-02-13T09:25:57;101832.81;;;7.53;49.52
44839;BME280;30576;42.098;24.876;2023-02-13T09:28:23;101825.97;;;7.29;48.42
44839;BME280;30576;42.098;24.876;2023-02-13T09:30:48;101824.38;;;7.34;48.52
44839;BME280;30576;42.098;24.876;2023-02-13T09:33:13;101817.22;;;7.58;48.89
44839;BME280;30576;42.098;24.876;2023-02-13T09:35:39;101815.41;;;7.57;47.87
44839;BME280;30576;42.098;24.876;2023-02-13T09:38:10;101819.00;;;7.59;47.74
44839;BME280;30576;42.098;24.876;2023-02-13T09:40:38;101804.81;;;7.82;48.29
44839;BME280;30576;42.098;24.876;2023-02-13T09:45:43;101803.91;;;7.80;46.78
44839;BME280;30576;42.098;24.876;2023-02-13T09:48:16;101800.28;;;7.77;47.03
44839;BME280;30576;42.098;24.876;2023-02-13T09:50:42;101798.66;;;7.80;46.86
44839;BME280;30576;42.098;24.876;2023-02-13T09:53:08;101791.91;;;7.61;47.55
44839;BME280;30576;42.098;24.876;2023-02-13T09:55:42;101788.44;;;7.33;48.45
44839;BME280;30576;42.098;24.876;2023-02-13T10:00:45;101782.03;;;8.12;47.31
44839;BME280;30576;42.098;24.876;2023-02-13T10:03:17;101774.13;;;8.12;46.97
44839;BME280;30576;42.098;24.876;2023-02-13T10:05:45;101770.38;;;8.02;46.48
44839;BME280;30576;42.098;24.876;2023-02-13T10:08:17;101766.66;;;7.95;47.55
44839;BME280;30576;42.098;24.876;2023-02-13T10:10:59;101760.50;;;7.95;45.71
44839;BME280;30576;42.098;24.876;2023-02-13T10:18:48;101754.91;;;8.13;46.12
44839;BME280;30576;42.098;24.876;2023-02-13T10:21:14;101749.97;;;8.25;45.72
44839;BME280;30576;42.098;24.876;2023-02-13T10:23:45;101741.34;;;8.63;45.93
44839;BME280;30576;42.098;24.876;2023-02-13T10:28:44;101725.16;;;8.15;45.87
44839;BME280;30576;42.098;24.876;2023-02-13T10:31:17;101722.97;;;8.32;45.38
44839;BME280;30576;42.098;24.876;2023-02-13T10:33:50;101721.56;;;8.12;45.61
44839;BME280;30576;42.098;24.876;2023-02-13T10:36:17;101720.75;;;7.82;45.81
44839;BME280;30576;42.098;24.876;2023-02-13T10:38:51;101707.75;;;8.19;45.61
44839;BME280;30576;42.098;24.876;2023-02-13T10:54:34;101677.19;;;8.56;43.42
44839;BME280;30576;42.098;24.876;2023-02-13T10:57:09;101665.34;;;8.75;43.31
44839;BME280;30576;42.098;24.876;2023-02-13T11:02:14;101664.03;;;8.94;43.18
44839;BME280;30576;42.098;24.876;2023-02-13T11:04:42;101654.50;;;8.99;43.73
44839;BME280;30576;42.098;24.876;2023-02-13T11:07:10;101651.28;;;9.12;43.21
44839;BME280;30576;42.098;24.876;2023-02-13T11:09:39;101654.84;;;9.14;42.12
44839;BME280;30576;42.098;24.876;2023-02-13T11:15:02;101640.66;;;9.49;42.13
44839;BME280;30576;42.098;24.876;2023-02-13T11:17:29;101637.16;;;9.50;40.63
44839;BME280;30576;42.098;24.876;2023-02-13T11:19:56;101634.03;;;9.25;40.27
44839;BME280;30576;42.098;24.876;2023-02-13T11:22:31;101626.91;;;9.21;41.39
44839;BME280;30576;42.098;24.876;2023-02-13T11:24:59;101614.69;;;9.25;40.78
44839;BME280;30576;42.098;24.876;2023-02-13T11:27:27;101608.50;;;9.65;40.72
44839;BME280;30576;42.098;24.876;2023-02-13T11:29:55;101602.94;;;9.99;39.76
44839;BME280;30576;42.098;24.876;2023-02-13T11:32:22;101586.72;;;10.26;38.88
44839;BME280;30576;42.098;24.876;2023-02-13T11:34:48;101594.09;;;10.44;38.63
44839;BME280;30576;42.098;24.876;2023-02-13T11:37:23;101583.63;;;10.00;39.22
44839;BME280;30576;42.098;24.876;2023-02-13T11:39:49;101573.28;;;10.12;38.98
44839;BME280;30576;42.098;24.876;2023-02-13T11:42:18;101569.84;;;10.15;38.81
44839;BME280;30576;42.098;24.876;2023-02-13T11:44:47;101572.63;;;10.24;38.23
44839;BME280;30576;42.098;24.876;2023-02-13T11:47:13;101567.28;;;10.21;38.14
44839;BME280;30576;42.098;24.876;2023-02-13T11:49:43;101570.06;;;10.29;38.49
44839;BME280;30576;42.098;24.876;2023-02-13T11:52:11;101561.06;;;10.17;36.51
44839;BME280;30576;42.098;24.876;2023-02-13T11:54:47;101556.66;;;10.16;37.34
44839;BME280;30576;42.098;24.876;2023-02-13T11:57:32;101542.22;;;10.46;37.41
44839;BME280;30576;42.098;24.876;2023-02-13T11:59:58;101545.88;;;10.57;36.56
44839;BME280;30576;42.098;24.876;2023-02-13T12:02:31;101540.34;;;10.39;36.11
44839;BME280;30576;42.098;24.876;2023-02-13T12:05:14;101543.78;;;10.33;36.94
44839;BME280;30576;42.098;24.876;2023-02-13T12:07:40;101538.91;;;10.63;36.33
44839;BME280;30576;42.098;24.876;2023-02-13T12:12:38;101537.22;;;10.66;35.00
44839;BME280;30576;42.098;24.876;2023-02-13T12:15:18;101529.97;;;10.53;34.84
44839;BME280;30576;42.098;24.876;2023-02-13T12:17:44;101528.47;;;10.72;33.98
44839;BME280;30576;42.098;24.876;2023-02-13T12:20:12;101527.53;;;10.67;34.27
44839;BME280;30576;42.098;24.876;2023-02-13T12:22:52;101519.94;;;10.90;34.12
44839;BME280;30576;42.098;24.876;2023-02-13T12:38:59;101505.59;;;10.69;32.60
44839;BME280;30576;42.098;24.876;2023-02-13T12:41:04;101504.13;;;10.93;32.49
44839;BME280;30576;42.098;24.876;2023-02-13T12:48:56;101498.66;;;10.78;30.26
44839;BME280;30576;42.098;24.876;2023-02-13T12:56:48;101487.72;;;11.20;31.86
44839;BME280;30576;42.098;24.876;2023-02-13T12:59:22;101481.56;;;11.21;32.66
44839;BME280;30576;42.098;24.876;2023-02-13T13:01:55;101475.44;;;11.25;33.19
44839;BME280;30576;42.098;24.876;2023-02-13T13:04:46;101478.69;;;11.01;31.94
44839;BME280;30576;42.098;24.876;2023-02-13T13:22:44;101465.66;;;11.17;32.92
44839;BME280;30576;42.098;24.876;2023-02-13T13:25:24;101463.25;;;11.40;32.53
44839;BME280;30576;42.098;24.876;2023-02-13T13:27:55;101461.16;;;11.06;33.20
44839;BME280;30576;42.098;24.876;2023-02-13T13:30:23;101453.38;;;11.19;33.90
44839;BME280;30576;42.098;24.876;2023-02-13T13:32:53;101448.03;;;11.13;33.11
44839;BME280;30576;42.098;24.876;2023-02-13T13:35:20;101449.00;;;11.24;33.10
44839;BME280;30576;42.098;24.876;2023-02-13T13:41:00;101453.00;;;10.86;34.15
44839;BME280;30576;42.098;24.876;2023-02-13T13:51:05;101447.81;;;10.94;33.17
44839;BME280;30576;42.098;24.876;2023-02-13T13:53:30;101442.44;;;10.86;32.73
44839;BME280;30576;42.098;24.876;2023-02-13T14:04:00;101433.69;;;10.90;32.98
44839;BME280;30576;42.098;24.876;2023-02-13T14:09:56;101433.03;;;11.10;31.78
44839;BME280;30576;42.098;24.876;2023-02-13T14:11:56;101427.66;;;11.02;32.49
44839;BME280;30576;42.098;24.876;2023-02-13T14:16:51;101427.53;;;10.90;32.84
44839;BME280;30576;42.098;24.876;2023-02-13T14:19:22;101428.44;;;10.95;32.59
44839;BME280;30576;42.098;24.876;2023-02-13T14:21:49;101425.81;;;10.95;33.00
44839;BME280;30576;42.098;24.876;2023-02-13T14:24:15;101427.47;;;10.87;33.04
44839;BME280;30576;42.098;24.876;2023-02-13T14:26:48;101420.44;;;10.87;32.79
44839;BME280;30576;42.098;24.876;2023-02-13T14:29:21;101421.59;;;11.11;32.78
44839;BME280;30576;42.098;24.876;2023-02-13T14:31:53;101421.75;;;11.26;32.81
44839;BME280;30576;42.098;24.876;2023-02-13T14:34:23;101418.94;;;11.08;33.24
44839;BME280;30576;42.098;24.876;2023-02-13T14:37:01;101409.41;;;11.27;33.08
44839;BME280;30576;42.098;24.876;2023-02-13T14:39:30;101409.44;;;11.28;32.58
44839;BME280;30576;42.098;24.876;2023-02-13T14:41:57;101411.22;;;11.29;32.76
44839;BME280;30576;42.098;24.876;2023-02-13T14:44:24;101411.19;;;11.26;32.92
44839;BME280;30576;42.098;24.876;2023-02-13T14:46:51;101411.84;;;11.05;33.04
44839;BME280;30576;42.098;24.876;2023-02-13T14:49:24;101404.69;;;10.97;33.28
44839;BME280;30576;42.098;24.876;2023-02-13T14:56:58;101399.31;;;10.87;33.10
44839;BME280;30576;42.098;24.876;2023-02-13T14:59:25;101402.88;;;10.88;33.26
44839;BME280;30576;42.098;24.876;2023-02-13T15:01:56;101394.94;;;10.88;32.74
44839;BME280;30576;42.098;24.876;2023-02-13T15:06:49;101395.09;;;11.02;32.42
44839;BME280;30576;42.098;24.876;2023-02-13T15:09:25;101401.28;;;11.07;32.16
44839;BME280;30576;42.098;24.876;2023-02-13T15:11:51;101394.97;;;10.89;32.54
44839;BME280;30576;42.098;24.876;2023-02-13T15:14:30;101390.56;;;10.91;32.75